Andradas, Brazil
Current Conditions -  °F | °C
As of 11:00 AM on Monday 22 Dec 2014 (Local Time) from SBYS Reporting Station
Broken Clouds Broken Clouds  
Wind Chill: 82°   Ceiling: 8000
Heat Index: 86°   Visibility: 6mi
Dew Point: 70°   Wind: 17mph
Humidity: 66%   Direction: 330°NNW
Pressure: 30"   Gusts: NA
Location:  22.07°S, 46.57°W
Report Text: SBYS 221300Z 33015KT 9999 SCT018 SCT030 BKN080 28/21 Q1016
Loading
Personal Weather Stations






























Interactive Weather Map New forecast layout! Learn more

10-Day Weather Forecast

Advertisements
Track Severe Weather on mobile